Time;durP1;ratioP1;P1;durP2;ratioP2;P2;SDS_P1;SDS_P2;PMS_P1;PMS_P2;Temp;Humidity;BMP_temperature;BMP_pressure;BME280_temperature;BME280_humidity;BME280_pressure;Samples;Min_cycle;Max_cycle;Signal;HPM_P1;HPM_P2
2021/04/03 00:02:13;;;;;;;11.77;5.50;;;;;;;3.44;66.95;96606.41;5053917;28;20446;-77
2021/04/03 00:04:39;;;;;;;10.23;4.70;;;;;;;3.52;66.88;96605.88;5055108;28;20044;-77
2021/04/03 00:07:05;;;;;;;10.53;5.33;;;;;;;3.45;67.12;96612.44;5053986;28;20024;-77
2021/04/03 00:09:31;;;;;;;8.13;4.13;;;;;;;3.42;67.74;96610.03;5058239;28;20131;-78
2021/04/03 00:11:57;;;;;;;11.03;4.57;;;;;;;3.51;67.05;96618.03;5071485;28;20486;-77
2021/04/03 00:14:23;;;;;;;10.43;4.53;;;;;;;3.46;66.23;96612.34;5077495;28;20059;-77
2021/04/03 00:16:48;;;;;;;11.30;4.50;;;;;;;3.65;65.97;96617.09;5048293;28;20448;-78
2021/04/03 00:19:14;;;;;;;10.13;4.27;;;;;;;3.51;65.91;96615.44;5041449;28;20126;-77
2021/04/03 00:21:39;;;;;;;9.00;4.00;;;;;;;3.54;65.95;96620.44;5048818;28;20044;-77
2021/04/03 00:24:06;;;;;;;8.83;4.17;;;;;;;3.44;66.56;96618.59;5066552;28;20059;-77
2021/04/03 00:26:31;;;;;;;9.10;4.97;;;;;;;3.57;65.80;96613.38;5048861;28;20081;-77
2021/04/03 00:28:57;;;;;;;9.57;4.93;;;;;;;3.42;66.51;96618.72;5050922;28;20446;-77
2021/04/03 00:31:23;;;;;;;10.60;5.40;;;;;;;3.60;65.98;96618.38;5055344;28;20420;-76
2021/04/03 00:33:51;;;;;;;20.13;5.00;;;;;;;3.59;65.67;96616.69;5056551;28;20028;-78
2021/04/03 00:36:17;;;;;;;8.83;3.90;;;;;;;3.57;65.57;96616.81;5051962;28;20125;-77
2021/04/03 00:38:43;;;;;;;8.60;3.73;;;;;;;3.71;65.20;96606.25;5060545;28;20473;-77
2021/04/03 00:41:08;;;;;;;9.93;4.30;;;;;;;3.63;65.29;96602.53;5058004;28;20044;-77
2021/04/03 00:43:34;;;;;;;13.97;4.40;;;;;;;3.35;66.06;96620.03;5041186;28;20032;-77
2021/04/03 00:46:00;;;;;;;8.83;4.30;;;;;;;3.43;65.69;96607.34;5073866;28;20029;-77
2021/04/03 00:48:26;;;;;;;11.40;4.43;;;;;;;3.34;65.46;96602.78;5059254;28;20433;-77
2021/04/03 00:50:54;;;;;;;20.30;5.03;;;;;;;3.48;65.43;96602.66;5069602;28;20067;-76
2021/04/03 00:53:26;;;;;;;8.57;4.13;;;;;;;3.35;65.86;96594.03;5049233;28;20115;-77
2021/04/03 00:56:04;;;;;;;12.07;5.50;;;;;;;3.39;65.37;96598.13;5054061;28;21087;-77
2021/04/03 00:58:30;;;;;;;7.87;4.03;;;;;;;3.58;64.80;96596.81;5037337;28;20855;-77
2021/04/03 01:00:57;;;;;;;7.77;4.00;;;;;;;3.37;65.02;96592.19;5046936;28;21107;-77
2021/04/03 01:03:26;;;;;;;8.90;4.23;;;;;;;3.33;65.02;96589.91;5039908;28;20545;-77
2021/04/03 01:05:59;;;;;;;7.93;3.90;;;;;;;3.31;64.80;96587.41;5036348;28;20482;-77
2021/04/03 01:08:27;;;;;;;9.37;4.60;;;;;;;3.28;64.63;96588.44;5044215;28;20466;-77
2021/04/03 01:10:54;;;;;;;8.73;3.93;;;;;;;3.18;64.80;96583.97;5067896;28;20502;-77
2021/04/03 01:13:47;;;;;;;11.40;3.40;;;;;;;3.30;64.44;96590.94;5045385;28;20031;-77
2021/04/03 01:16:40;;;;;;;10.63;3.73;;;;;;;3.28;64.51;96572.84;5066699;28;20462;-77
2021/04/03 01:19:18;;;;;;;11.90;4.00;;;;;;;3.10;64.42;96574.13;5054589;28;20478;-78
2021/04/03 01:22:22;;;;;;;10.57;3.93;;;;;;;3.05;65.34;96576.19;5051903;28;20478;-77
2021/04/03 01:24:49;;;;;;;9.93;4.00;;;;;;;3.27;63.97;96586.78;5046214;28;20462;-77
2021/04/03 01:27:22;;;;;;;8.47;3.50;;;;;;;3.41;63.31;96580.63;5065986;28;21910;-77
2021/04/03 01:30:16;;;;;;;11.33;3.63;;;;;;;3.35;64.48;96583.66;5049380;28;20630;-77
2021/04/03 01:33:05;;;;;;;12.60;3.93;;;;;;;3.46;63.66;96583.75;5070048;28;20872;-79
2021/04/03 01:35:43;;;;;;;5.80;2.87;;;;;;;3.52;63.25;96585.94;5055213;28;20463;-78
2021/04/03 01:38:34;;;;;;;13.33;3.90;;;;;;;3.39;63.68;96574.72;5068963;28;20461;-77
2021/04/03 01:41:01;;;;;;;9.18;3.65;;;;;;;3.35;63.21;96573.25;5060689;28;20462;-77
2021/04/03 01:43:40;;;;;;;7.30;3.80;;;;;;;3.37;63.69;96571.38;5060873;28;20028;-77
2021/04/03 01:46:08;;;;;;;9.93;4.43;;;;;;;3.47;63.66;96577.59;5047587;28;20474;-77
2021/04/03 01:48:38;;;;;;;7.80;4.57;;;;;;;3.60;63.05;96571.56;5047946;28;21016;-78
2021/04/03 01:51:06;;;;;;;6.93;3.30;;;;;;;3.43;63.22;96578.75;5072117;28;20459;-77
2021/04/03 01:53:34;;;;;;;6.57;3.70;;;;;;;3.36;63.81;96572.34;5060951;28;20450;-77
2021/04/03 01:56:04;;;;;;;9.30;3.50;;;;;;;3.38;63.27;96569.59;5050078;28;20470;-77
2021/04/03 01:58:40;;;;;;;6.80;3.23;;;;;;;3.31;63.67;96561.41;5064960;28;20463;-77
2021/04/03 02:01:09;;;;;;;8.87;3.70;;;;;;;3.45;63.39;96561.28;5046892;28;20498;-77
2021/04/03 02:03:37;;;;;;;9.50;3.70;;;;;;;3.40;63.33;96559.94;5052625;28;20466;-77
2021/04/03 02:06:07;;;;;;;8.97;3.53;;;;;;;3.29;63.24;96553.72;5070817;28;20558;-78
2021/04/03 02:08:50;;;;;;;9.00;3.60;;;;;;;3.49;63.21;96556.72;5058441;28;20468;-77
2021/04/03 02:11:42;;;;;;;9.40;3.10;;;;;;;3.29;63.79;96553.72;5061141;28;20553;-77
2021/04/03 02:14:24;;;;;;;7.10;3.20;;;;;;;3.33;63.20;96559.53;5057396;28;20501;-77
2021/04/03 02:16:52;;;;;;;9.20;3.27;;;;;;;3.38;63.20;96554.84;5058774;28;21231;-77
2021/04/03 02:19:19;;;;;;;9.67;3.73;;;;;;;3.35;63.83;96552.44;5039482;28;20466;-77
2021/04/03 02:21:46;;;;;;;8.70;3.50;;;;;;;3.20;63.50;96554.34;5056380;28;20471;-77
2021/04/03 02:24:12;;;;;;;10.40;4.27;;;;;;;3.15;63.91;96560.78;5059326;28;20467;-77
2021/04/03 02:26:39;;;;;;;7.50;3.30;;;;;;;3.09;64.43;96572.47;5053604;28;20971;-77
2021/04/03 02:29:05;;;;;;;10.40;3.80;;;;;;;3.15;64.45;96573.78;5054955;28;21099;-77
2021/04/03 02:31:34;;;;;;;8.73;3.47;;;;;;;3.21;63.67;96574.19;5047302;28;20478;-77
2021/04/03 02:34:00;;;;;;;8.50;3.27;;;;;;;3.04;65.08;96574.53;5077408;28;20454;-77
2021/04/03 02:36:27;;;;;;;10.73;3.50;;;;;;;3.09;64.74;96571.63;5067785;28;21002;-77
2021/04/03 02:38:54;;;;;;;7.10;3.57;;;;;;;3.16;64.45;96567.69;5058825;28;20466;-77
2021/04/03 02:41:32;;;;;;;7.47;3.40;;;;;;;3.03;65.07;96571.09;5043060;28;21054;-77
2021/04/03 02:44:08;;;;;;;8.73;3.50;;;;;;;3.02;64.88;96571.22;5037826;28;20499;-77
2021/04/03 02:46:41;;;;;;;9.03;3.20;;;;;;;2.85;66.09;96564.56;5054137;28;20466;-77
2021/04/03 02:49:15;;;;;;;8.23;3.57;;;;;;;2.84;66.14;96568.91;5062906;28;20502;-77
2021/04/03 02:51:46;;;;;;;8.63;3.87;;;;;;;2.89;65.95;96575.59;5054030;28;20474;-77
2021/04/03 02:54:17;;;;;;;9.53;3.90;;;;;;;2.80;66.03;96571.84;5037604;28;20529;-77
2021/04/03 02:56:45;;;;;;;7.73;3.70;;;;;;;2.79;65.91;96570.19;5044122;28;20539;-77
2021/04/03 02:59:35;;;;;;;8.43;3.77;;;;;;;2.77;65.90;96578.06;5042185;28;20463;-77
2021/04/03 03:02:02;;;;;;;9.43;4.43;;;;;;;2.73;66.73;96580.97;5072434;28;20463;-77
2021/04/03 03:04:30;;;;;;;9.07;4.63;;;;;;;2.66;66.65;96569.34;5042431;28;20458;-77
2021/04/03 03:06:58;;;;;;;6.67;3.57;;;;;;;2.71;66.71;96575.03;5056552;28;20492;-77
2021/04/03 03:09:26;;;;;;;10.43;4.17;;;;;;;2.67;66.78;96577.00;5044025;28;20447;-77
2021/04/03 03:11:58;;;;;;;10.50;3.83;;;;;;;2.58;66.34;96562.88;5059375;28;20447;-77
2021/04/03 03:14:26;;;;;;;6.83;3.80;;;;;;;2.58;66.87;96567.22;5066860;28;20455;-78
2021/04/03 03:16:54;;;;;;;10.33;4.50;;;;;;;2.25;67.67;96571.13;5057655;28;21110;-77
2021/04/03 03:19:23;;;;;;;7.00;4.13;;;;;;;2.42;67.38;96571.78;5063433;28;20554;-77
2021/04/03 03:21:51;;;;;;;9.50;4.53;;;;;;;2.47;66.73;96575.72;5059500;28;20463;-76
2021/04/03 03:24:18;;;;;;;6.23;4.03;;;;;;;2.31;67.70;96575.06;5050463;28;20458;-78
2021/04/03 03:26:46;;;;;;;11.47;4.67;;;;;;;2.43;67.32;96571.69;5068250;28;20443;-77
2021/04/03 03:29:13;;;;;;;8.17;3.80;;;;;;;2.49;66.83;96558.31;5070856;28;20435;-77
2021/04/03 03:31:41;;;;;;;9.00;4.03;;;;;;;2.54;66.52;96560.59;5072219;28;20497;-77
2021/04/03 03:34:10;;;;;;;8.73;4.27;;;;;;;2.58;66.53;96567.22;5064730;28;21047;-77
2021/04/03 03:36:42;;;;;;;7.97;4.07;;;;;;;2.58;66.14;96562.88;5062751;28;20525;-77
2021/04/03 03:39:09;;;;;;;9.97;3.97;;;;;;;2.58;66.20;96570.69;5058856;28;20526;-77
2021/04/03 03:41:37;;;;;;;10.70;4.30;;;;;;;2.38;67.28;96572.91;5059970;28;20473;-77
2021/04/03 03:44:05;;;;;;;8.30;3.87;;;;;;;2.40;67.29;96571.88;5074645;28;20550;-77
2021/04/03 03:46:31;;;;;;;7.10;3.37;;;;;;;2.43;67.97;96571.69;5061553;28;20462;-77
2021/04/03 03:48:58;;;;;;;8.37;3.87;;;;;;;2.44;68.17;96565.53;5048947;28;20804;-77
2021/04/03 03:51:25;;;;;;;8.80;4.20;;;;;;;2.44;67.21;96575.94;5070870;28;20475;-77
2021/04/03 03:54:04;;;;;;;7.37;4.27;;;;;;;2.28;67.76;96580.44;5056630;28;21136;-77
2021/04/03 03:56:31;;;;;;;14.27;4.63;;;;;;;2.29;67.88;96572.59;5054913;28;21064;-77
2021/04/03 03:58:57;;;;;;;7.10;3.73;;;;;;;2.25;67.89;96580.69;5070004;28;20478;-77
2021/04/03 04:01:23;;;;;;;10.87;4.50;;;;;;;2.32;67.97;96584.53;5043243;28;20123;-77
2021/04/03 04:03:49;;;;;;;8.93;4.03;;;;;;;2.17;68.50;96586.34;5061168;28;20036;-77
2021/04/03 04:06:19;;;;;;;8.70;4.37;;;;;;;2.34;68.37;96590.44;5055541;28;20527;-77
2021/04/03 04:08:48;;;;;;;10.03;4.00;;;;;;;2.27;68.24;96584.81;5073401;28;20458;-77
2021/04/03 04:11:17;;;;;;;10.97;4.97;;;;;;;2.27;68.57;96589.19;5068531;28;20453;-77
2021/04/03 04:13:45;;;;;;;10.33;4.23;;;;;;;2.22;68.46;96597.28;5052109;28;20451;-77
2021/04/03 04:16:16;;;;;;;10.43;4.03;;;;;;;2.21;68.37;96594.75;5066585;28;20450;-77
2021/04/03 04:18:43;;;;;;;9.70;3.87;;;;;;;2.12;68.71;96591.84;5051916;28;20528;-77
2021/04/03 04:21:14;;;;;;;10.13;4.97;;;;;;;2.12;69.36;96597.03;5052390;28;20601;-77
2021/04/03 04:23:41;;;;;;;10.73;4.00;;;;;;;2.08;68.93;96595.56;5074537;28;20462;-77
2021/04/03 04:26:08;;;;;;;7.73;3.87;;;;;;;2.08;69.29;96605.94;5051302;28;20451;-77
2021/04/03 04:28:35;;;;;;;10.00;4.67;;;;;;;2.13;69.42;96608.22;5073086;28;20446;-77
2021/04/03 04:31:02;;;;;;;8.57;4.47;;;;;;;2.26;69.18;96601.31;5063360;28;20554;-77
2021/04/03 04:33:34;;;;;;;9.33;4.53;;;;;;;2.21;69.15;96599.94;5067776;28;20450;-77
2021/04/03 04:36:02;;;;;;;7.97;3.10;;;;;;;2.28;68.59;96602.06;5053091;28;20463;-79
2021/04/03 04:38:31;;;;;;;8.80;4.20;;;;;;;2.26;69.32;96610.88;5079487;28;20477;-78
2021/04/03 04:40:57;;;;;;;9.23;3.80;;;;;;;2.23;69.00;96609.31;5050856;28;20442;-79
2021/04/03 04:43:23;;;;;;;11.23;3.97;;;;;;;2.13;69.88;96618.63;5058069;28;20469;-77
2021/04/03 04:45:53;;;;;;;9.93;3.80;;;;;;;2.28;69.51;96609.84;5044864;28;20037;-77
2021/04/03 04:48:24;;;;;;;7.60;3.83;;;;;;;2.31;69.70;96617.44;5054710;28;20446;-78
2021/04/03 04:50:58;;;;;;;6.90;3.60;;;;;;;2.29;69.88;96618.47;5053453;28;20544;-77
2021/04/03 04:53:25;;;;;;;7.07;3.40;;;;;;;2.34;69.35;96621.59;5057505;28;20447;-78
2021/04/03 04:55:50;;;;;;;7.20;3.60;;;;;;;2.26;69.51;96629.88;5058643;28;20469;-78
2021/04/03 04:58:17;;;;;;;6.67;3.57;;;;;;;2.31;69.26;96632.16;5048002;28;20090;-76
2021/04/03 05:00:44;;;;;;;11.07;4.73;;;;;;;2.24;69.48;96625.69;5038193;28;20467;-77
2021/04/03 05:03:17;;;;;;;8.57;3.17;;;;;;;2.37;69.22;96626.59;5043776;28;21008;-77
2021/04/03 05:05:42;;;;;;;7.80;3.67;;;;;;;2.30;68.61;96631.34;5048616;28;20500;-77
2021/04/03 05:08:08;;;;;;;8.30;4.20;;;;;;;2.34;69.10;96632.78;5068129;28;20544;-77
2021/04/03 05:10:34;;;;;;;8.33;3.57;;;;;;;2.38;68.72;96630.81;5045846;28;20059;-77
2021/04/03 05:13:01;;;;;;;8.53;3.87;;;;;;;2.39;68.83;96635.13;5067496;28;20095;-77
2021/04/03 05:15:27;;;;;;;8.70;4.30;;;;;;;2.47;69.22;96635.44;5062532;28;20515;-77
2021/04/03 05:17:52;;;;;;;9.73;3.83;;;;;;;2.54;68.79;96638.47;5065570;28;20937;-77
2021/04/03 05:20:18;;;;;;;8.57;4.07;;;;;;;2.51;68.53;96638.66;5054330;28;20032;-77
2021/04/03 05:22:44;;;;;;;11.80;4.43;;;;;;;2.49;69.01;96645.72;5077766;28;20028;-77
2021/04/03 05:25:12;;;;;;;7.83;3.80;;;;;;;2.60;68.75;96653.66;5051967;28;20074;-77
2021/04/03 05:27:38;;;;;;;10.77;4.00;;;;;;;2.50;69.08;96650.81;5052956;28;20020;-77
2021/04/03 05:30:05;;;;;;;7.37;3.97;;;;;;;2.57;68.05;96652.06;5049700;28;20458;-77
2021/04/03 05:32:31;;;;;;;7.23;3.57;;;;;;;2.64;68.33;96659.47;5067448;28;20458;-77
2021/04/03 05:34:57;;;;;;;13.87;4.23;;;;;;;2.73;68.39;96659.72;5065740;28;20477;-77
2021/04/03 05:37:23;;;;;;;8.20;4.23;;;;;;;2.72;68.25;96655.47;5076642;28;20124;-77
2021/04/03 05:39:48;;;;;;;10.83;4.40;;;;;;;2.72;67.99;96665.00;5053835;28;20112;-77
2021/04/03 05:42:18;;;;;;;8.37;4.17;;;;;;;2.77;68.16;96661.16;5067927;28;20020;-77
2021/04/03 05:44:44;;;;;;;7.60;3.77;;;;;;;2.78;68.12;96672.38;5070357;28;20060;-77
2021/04/03 05:47:10;;;;;;;9.33;4.53;;;;;;;2.97;67.79;96680.63;5063824;28;20463;-77
2021/04/03 05:49:36;;;;;;;7.47;4.13;;;;;;;3.00;67.17;96679.59;5064502;28;20593;-77
2021/04/03 05:52:06;;;;;;;9.77;4.70;;;;;;;2.98;67.34;96677.09;5051100;28;20032;-77
2021/04/03 05:54:38;;;;;;;9.80;4.90;;;;;;;3.01;67.41;96679.50;5056669;28;20535;-77
2021/04/03 05:57:05;;;;;;;8.73;3.97;;;;;;;2.74;67.98;96686.50;5068305;28;20454;-78
2021/04/03 05:59:32;;;;;;;7.30;3.90;;;;;;;3.10;66.70;96692.81;5050152;28;21039;-77
2021/04/03 06:01:58;;;;;;;12.00;3.90;;;;;;;3.16;66.89;96700.22;5067085;28;20574;-79
2021/04/03 06:04:24;;;;;;;7.47;4.17;;;;;;;3.24;66.84;96703.13;5047250;28;20443;-77
2021/04/03 06:06:50;;;;;;;9.30;4.37;;;;;;;3.13;67.15;96705.63;5038875;28;20528;-77
2021/04/03 06:09:17;;;;;;;10.03;4.60;;;;;;;3.22;67.02;96702.38;5055784;28;20112;-78
2021/04/03 06:11:47;;;;;;;11.20;4.80;;;;;;;3.11;67.93;96715.25;5049967;28;20517;-77
2021/04/03 06:14:13;;;;;;;8.93;5.17;;;;;;;3.03;67.66;96711.41;5067037;28;21379;-77
2021/04/03 06:16:49;;;;;;;12.03;5.60;;;;;;;3.31;67.23;96717.38;5062065;28;20470;-77
2021/04/03 06:19:21;;;;;;;11.47;4.80;;;;;;;3.57;66.23;96715.63;5055280;28;20608;-77
2021/04/03 06:21:54;;;;;;;11.10;5.27;;;;;;;3.72;65.75;96721.53;5040978;28;20467;-76
2021/04/03 06:24:34;;;;;;;7.70;4.22;;;;;;;3.95;65.09;96712.97;5034462;28;20550;-77
2021/04/03 06:27:09;;;;;;;10.43;4.20;;;;;;;4.17;63.82;96720.13;5038035;28;20693;-77
2021/04/03 06:29:50;;;;;;;9.63;4.70;;;;;;;3.66;65.21;96716.78;5034797;28;20477;-77
2021/04/03 06:32:22;;;;;;;12.07;4.37;;;;;;;3.87;64.69;96715.28;5044235;28;21021;-77
2021/04/03 06:34:50;;;;;;;10.97;5.07;;;;;;;4.39;63.20;96705.56;5052174;28;20475;-78
2021/04/03 06:37:30;;;;;;;9.60;4.50;;;;;;;5.31;61.01;96715.34;5080470;28;20457;-77
2021/04/03 06:40:04;;;;;;;9.03;4.20;;;;;;;5.42;58.36;96717.13;5051351;28;20535;-76
2021/04/03 06:42:47;;;;;;;9.03;3.80;;;;;;;6.21;56.95;96705.00;5055098;28;20567;-78
2021/04/03 06:45:28;;;;;;;7.65;3.15;;;;;;;6.17;56.56;96702.72;5047342;28;20438;-77
2021/04/03 06:48:01;;;;;;;8.47;2.90;;;;;;;6.69;56.00;96709.88;5066056;28;20501;-76
2021/04/03 06:50:30;;;;;;;8.63;3.50;;;;;;;5.17;59.40;96725.97;5043183;28;20824;-77
2021/04/03 06:52:57;;;;;;;9.97;3.87;;;;;;;5.48;58.24;96718.44;5055781;28;20029;-77
2021/04/03 06:55:24;;;;;;;10.23;4.47;;;;;;;5.36;59.59;96725.41;5063365;28;20787;-77
2021/04/03 06:57:53;;;;;;;9.10;3.30;;;;;;;5.02;60.23;96733.13;5036537;28;20496;-77
2021/04/03 07:00:19;;;;;;;9.73;3.63;;;;;;;4.83;62.15;96733.66;5062178;28;20451;-77
2021/04/03 07:02:56;;;;;;;8.97;3.30;;;;;;;4.52;62.32;96732.41;5039954;28;20996;-76
2021/04/03 07:05:23;;;;;;;10.60;4.10;;;;;;;5.03;61.36;96732.19;5057976;28;20459;-76
2021/04/03 07:07:49;;;;;;;10.40;3.30;;;;;;;4.43;62.73;96730.47;5055060;28;20553;-77
2021/04/03 07:10:17;;;;;;;12.30;5.93;;;;;;;4.41;62.98;96727.13;5079184;28;20466;-77
2021/04/03 07:12:43;;;;;;;8.20;4.50;;;;;;;4.92;62.19;96719.94;5062347;28;20486;-77
2021/04/03 07:15:10;;;;;;;12.60;3.40;;;;;;;4.47;63.00;96727.53;5063471;28;20456;-77
2021/04/03 07:17:41;;;;;;;10.60;3.10;;;;;;;4.31;62.45;96724.34;5069291;28;20549;-77
2021/04/03 07:20:13;;;;;;;13.43;3.10;;;;;;;4.11;63.54;96740.53;5055407;28;21498;-77
2021/04/03 07:22:44;;;;;;;11.83;2.93;;;;;;;4.88;61.94;96736.75;5039414;28;20504;-78
2021/04/03 07:25:11;;;;;;;8.90;3.00;;;;;;;5.20;59.96;96738.78;5039965;28;20566;-77
2021/04/03 07:27:48;;;;;;;7.83;3.50;;;;;;;5.35;59.29;96742.00;5043303;28;20459;-78
2021/04/03 07:30:40;;;;;;;8.13;4.17;;;;;;;5.50;59.07;96746.09;5046011;28;20459;-77
2021/04/03 07:33:13;;;;;;;11.73;5.23;;;;;;;5.31;58.63;96745.81;5046384;28;20474;-76
2021/04/03 07:36:03;;;;;;;5.95;3.15;;;;;;;5.82;59.97;96746.25;5040697;28;20479;-76
2021/04/03 07:38:31;;;;;;;13.33;2.80;;;;;;;6.29;55.98;96746.16;5040831;28;20080;-76
2021/04/03 07:40:59;;;;;;;8.73;2.87;;;;;;;6.76;55.96;96744.19;5049945;28;20447;-76
2021/04/03 07:43:41;;;;;;;12.87;2.90;;;;;;;7.90;50.87;96733.03;5067620;28;20524;-77
2021/04/03 07:46:20;;;;;;;10.57;2.97;;;;;;;6.87;52.79;96745.94;5079168;28;20078;-78
2021/04/03 07:48:57;;;;;;;6.67;2.57;;;;;;;8.17;49.35;96743.75;5076900;28;20092;-77
2021/04/03 07:51:23;;;;;;;8.27;2.93;;;;;;;8.70;48.15;96742.72;5055810;28;20028;-79
2021/04/03 07:53:53;;;;;;;6.37;2.50;;;;;;;9.39;46.92;96741.81;5058108;28;20036;-78
2021/04/03 07:56:21;;;;;;;7.10;2.93;;;;;;;9.55;45.66;96746.47;5071064;28;20039;-78
2021/04/03 07:58:53;;;;;;;7.13;2.53;;;;;;;9.08;46.97;96747.19;5060833;28;20484;-78
2021/04/03 08:01:20;;;;;;;8.70;2.70;;;;;;;9.94;44.13;96749.03;5050850;28;20036;-78
2021/04/03 08:04:01;;;;;;;7.73;2.63;;;;;;;9.76;43.63;96736.66;5047533;28;20035;-78
2021/04/03 08:06:31;;;;;;;6.23;2.60;;;;;;;8.04;47.20;96751.84;5051648;28;20042;-78
2021/04/03 08:08:57;;;;;;;5.40;2.10;;;;;;;7.64;47.77;96759.59;5066984;28;20037;-77
2021/04/03 08:11:23;;;;;;;5.67;2.20;;;;;;;8.45;47.36;96754.50;5058644;28;20521;-78
2021/04/03 08:13:51;;;;;;;6.50;2.43;;;;;;;8.36;46.89;96753.50;5054968;28;20128;-78
2021/04/03 08:16:18;;;;;;;8.70;2.33;;;;;;;8.16;47.93;96762.25;5066466;28;20137;-78
2021/04/03 08:18:52;;;;;;;6.23;2.53;;;;;;;8.79;45.35;96757.66;5075836;28;20393;-78
2021/04/03 08:21:18;;;;;;;;;;;;;;;9.59;43.15;96751.31;5072186;28;20515;-78
2021/04/03 08:23:49;;;;;;;6.97;1.90;;;;;;;10.69;40.43;96753.31;5074996;28;19912;-78
2021/04/03 08:26:17;;;;;;;6.10;2.40;;;;;;;9.40;42.68;96761.84;5062116;28;20405;-78
2021/04/03 08:28:44;;;;;;;7.07;2.53;;;;;;;8.60;44.52;96758.44;5058809;28;20036;-78
2021/04/03 08:31:26;;;;;;;6.07;2.03;;;;;;;9.92;42.76;96751.78;5075954;28;20051;-78
2021/04/03 08:33:54;;;;;;;9.07;2.80;;;;;;;9.53;44.09;96759.75;5059843;28;20087;-78
2021/04/03 08:36:25;;;;;;;9.33;4.30;;;;;;;9.36;43.24;96755.22;5054204;28;20043;-80
2021/04/03 08:38:52;;;;;;;5.80;2.70;;;;;;;8.50;46.42;96762.81;5072030;28;20055;-79
2021/04/03 08:41:19;;;;;;;7.67;2.40;;;;;;;8.03;46.93;96770.31;5085630;28;20032;-78
2021/04/03 08:43:46;;;;;;;5.47;2.30;;;;;;;8.19;45.46;96765.44;5064558;28;20028;-78
2021/04/03 08:46:15;;;;;;;8.57;2.57;;;;;;;8.06;45.66;96770.06;5073422;28;20025;-78
2021/04/03 08:48:45;;;;;;;11.60;2.80;;;;;;;7.53;47.57;96780.63;5089135;28;20032;-78
2021/04/03 08:51:12;;;;;;;6.40;2.27;;;;;;;7.71;47.06;96775.63;5079122;28;20064;-78
2021/04/03 08:53:43;;;;;;;10.40;3.57;;;;;;;7.16;48.37;96778.41;5069321;28;20028;-78
2021/04/03 08:56:34;;;;;;;6.20;1.77;;;;;;;8.00;47.10;96779.25;5064251;28;20697;-78
2021/04/03 08:59:02;;;;;;;7.50;2.00;;;;;;;8.18;46.35;96784.75;5079353;28;20074;-78
2021/04/03 09:01:30;;;;;;;6.13;2.10;;;;;;;8.80;46.03;96782.91;5069330;28;20059;-77
2021/04/03 09:04:06;;;;;;;6.63;2.20;;;;;;;8.34;46.95;96789.47;5058356;28;20115;-78
2021/04/03 09:06:51;;;;;;;7.33;2.10;;;;;;;7.56;48.25;96789.03;5083505;28;20043;-78
2021/04/03 09:09:20;;;;;;;6.03;2.67;;;;;;;8.08;47.66;96791.72;5063211;28;20685;-78
2021/04/03 09:12:04;;;;;;;8.53;2.80;;;;;;;8.72;46.47;96791.47;5086554;28;20126;-78
2021/04/03 09:14:40;;;;;;;9.25;4.25;;;;;;;8.92;45.88;96801.97;5084566;28;20044;-78
2021/04/03 09:17:27;;;;;;;6.27;2.30;;;;;;;7.63;47.61;96799.84;5086319;28;20040;-78
2021/04/03 09:20:05;;;;;;;10.30;4.30;;;;;;;8.45;46.17;96799.06;5058034;28;20048;-78
2021/04/03 09:22:37;;;;;;;6.53;2.87;;;;;;;10.08;43.40;96793.25;5062318;28;20040;-78
2021/04/03 09:25:08;;;;;;;10.30;3.60;;;;;;;11.00;40.01;96781.94;5073637;28;20056;-78
2021/04/03 09:27:35;;;;;;;4.67;2.20;;;;;;;11.22;39.08;96789.41;5071429;28;20074;-78
2021/04/03 09:30:11;;;;;;;7.47;3.23;;;;;;;12.37;37.34;96780.56;5071664;28;20033;-80
2021/04/03 09:32:47;;;;;;;6.60;2.67;;;;;;;13.88;35.31;96779.66;5076733;28;20044;-78
2021/04/03 09:35:26;;;;;;;6.83;2.73;;;;;;;12.89;36.64;96785.75;5086041;28;20096;-78
2021/04/03 09:37:56;;;;;;;6.80;2.33;;;;;;;13.26;35.16;96787.22;5060439;28;20032;-78
2021/04/03 09:40:36;;;;;;;5.77;2.30;;;;;;;13.32;34.40;96786.56;5054776;28;20079;-77
2021/04/03 09:43:02;;;;;;;7.13;2.57;;;;;;;13.33;35.04;96792.66;5081178;28;20043;-78
2021/04/03 09:45:28;;;;;;;6.63;2.37;;;;;;;13.63;34.40;96788.56;5059765;28;20382;-77
2021/04/03 09:47:56;;;;;;;8.53;2.40;;;;;;;12.77;41.92;96791.47;5072461;28;20086;-78
2021/04/03 09:50:22;;;;;;;7.27;2.40;;;;;;;12.36;37.00;96796.56;5064785;28;20526;-79
2021/04/03 09:52:48;;;;;;;4.40;1.87;;;;;;;11.20;36.52;96801.06;5060506;28;20087;-79
2021/04/03 09:55:14;;;;;;;4.87;1.80;;;;;;;11.61;36.57;96798.81;5063487;28;20052;-79
2021/04/03 09:57:40;;;;;;;5.00;1.77;;;;;;;11.86;37.00;96792.78;5050837;28;20032;-80
2021/04/03 10:00:10;;;;;;;5.97;2.13;;;;;;;11.33;36.74;96796.25;5058420;28;20040;-79
2021/04/03 10:02:35;;;;;;;5.97;2.40;;;;;;;10.96;38.67;96796.38;5038200;28;20031;-80
2021/04/03 10:05:03;;;;;;;6.23;2.10;;;;;;;10.59;39.06;96802.50;5076725;28;20020;-80
2021/04/03 10:07:29;;;;;;;8.47;2.90;;;;;;;10.68;38.50;96806.91;5061780;28;20020;-80
2021/04/03 10:09:55;;;;;;;8.93;2.83;;;;;;;10.19;40.94;96811.47;5063538;28;20027;-80
2021/04/03 10:12:21;;;;;;;5.37;2.50;;;;;;;10.61;40.82;96811.09;5075669;28;20016;-79
2021/04/03 10:14:47;;;;;;;8.30;2.77;;;;;;;12.07;37.88;96794.25;5069956;28;20021;-80
2021/04/03 10:17:13;;;;;;;7.47;2.40;;;;;;;11.21;39.13;96797.47;5073170;28;20018;-79
2021/04/03 10:19:39;;;;;;;6.23;2.30;;;;;;;11.20;39.05;96795.78;5066672;28;20104;-78
2021/04/03 10:22:09;;;;;;;6.10;2.27;;;;;;;9.34;42.27;96809.63;5098165;28;20020;-79
2021/04/03 10:24:35;;;;;;;6.00;2.70;;;;;;;9.19;42.30;96815.28;5082655;28;20029;-78
2021/04/03 10:27:00;;;;;;;6.23;2.33;;;;;;;8.41;43.72;96818.66;5031092;28;20043;-78
2021/04/03 10:29:36;;;;;;;7.10;2.60;;;;;;;8.13;43.94;96813.09;5056055;28;20037;-80
2021/04/03 10:32:03;;;;;;;5.17;2.33;;;;;;;8.46;43.96;96808.63;5042159;28;20074;-80
2021/04/03 10:34:28;;;;;;;12.43;5.77;;;;;;;8.41;44.56;96810.78;5063281;28;20039;-78
2021/04/03 10:36:54;;;;;;;16.43;9.27;;;;;;;8.14;43.43;96809.53;5039131;28;20028;-79
2021/04/03 10:39:20;;;;;;;6.13;2.00;;;;;;;8.54;42.65;96815.81;5047560;28;20028;-80
2021/04/03 10:41:46;;;;;;;6.23;2.60;;;;;;;7.83;43.88;96826.16;5054780;28;20385;-79
2021/04/03 10:44:11;;;;;;;7.70;2.30;;;;;;;8.16;43.79;96820.72;5043671;28;20720;-77
2021/04/03 10:46:37;;;;;;;9.33;3.13;;;;;;;8.64;43.68;96830.59;5044124;28;20025;-76
2021/04/03 10:49:03;;;;;;;9.67;2.87;;;;;;;8.56;44.12;96830.44;5054389;28;20032;-77
2021/04/03 10:51:28;;;;;;;5.90;2.30;;;;;;;9.10;43.41;96826.59;5048297;28;20048;-77
2021/04/03 10:53:54;;;;;;;6.80;2.47;;;;;;;9.28;41.82;96826.75;5063540;28;20032;-80
2021/04/03 10:56:20;;;;;;;9.03;3.03;;;;;;;9.07;42.64;96823.41;5063629;28;20028;-77
2021/04/03 10:58:46;;;;;;;5.97;2.40;;;;;;;8.61;43.32;96823.00;5058114;28;20090;-77
2021/04/03 11:01:12;;;;;;;6.37;2.30;;;;;;;9.51;42.20;96816.81;5050016;28;20112;-78
2021/04/03 11:03:37;;;;;;;7.30;2.40;;;;;;;11.48;38.67;96813.19;5049406;28;20025;-77
2021/04/03 11:06:03;;;;;;;8.47;2.87;;;;;;;11.45;37.75;96807.41;5046432;28;20035;-77
2021/04/03 11:08:30;;;;;;;7.77;2.70;;;;;;;13.01;34.12;96807.44;5024364;28;20027;-79
2021/04/03 11:10:56;;;;;;;7.63;2.60;;;;;;;11.34;36.78;96803.19;5026511;28;20040;-78
2021/04/03 11:13:22;;;;;;;7.10;2.77;;;;;;;12.51;34.69;96805.56;5051675;28;20024;-79
2021/04/03 11:15:48;;;;;;;4.93;1.83;;;;;;;13.31;33.51;96794.63;5057391;28;20408;-77
2021/04/03 11:18:15;;;;;;;10.60;3.70;;;;;;;11.53;34.03;96808.28;5069120;28;20082;-78
2021/04/03 11:20:41;;;;;;;5.97;2.77;;;;;;;10.93;33.28;96810.66;5079897;28;20028;-79
2021/04/03 11:23:06;;;;;;;4.67;3.10;;;;;;;10.35;37.17;96816.16;5041040;28;20017;-77
2021/04/03 11:25:33;;;;;;;6.33;2.57;;;;;;;9.36;40.64;96823.47;5062838;28;20151;-76
2021/04/03 11:28:02;;;;;;;10.50;2.60;;;;;;;8.84;42.96;96822.81;5043936;28;20024;-77
2021/04/03 11:30:28;;;;;;;6.10;2.03;;;;;;;8.56;43.70;96830.44;5049466;28;20047;-77
2021/04/03 11:32:54;;;;;;;6.83;2.47;;;;;;;8.32;44.38;96827.28;5040043;28;20115;-79
2021/04/03 11:35:22;;;;;;;5.10;2.30;;;;;;;8.37;44.07;96825.91;5051838;28;20050;-79
2021/04/03 11:37:51;;;;;;;7.50;2.33;;;;;;;9.24;43.29;96827.16;5059183;28;20323;-80
2021/04/03 11:40:17;;;;;;;6.03;2.73;;;;;;;9.09;42.53;96818.88;5051632;28;20325;-79
2021/04/03 11:42:45;;;;;;;6.83;4.30;;;;;;;9.31;42.15;96809.91;5051223;28;20570;-79
2021/04/03 11:45:12;;;;;;;13.23;5.30;;;;;;;9.17;41.18;96822.47;5050742;28;20040;-77
2021/04/03 11:47:38;;;;;;;7.87;4.10;;;;;;;9.20;42.09;96824.00;5052737;28;20027;-78
2021/04/03 11:50:08;;;;;;;5.87;2.80;;;;;;;9.80;40.55;96813.38;5052831;28;20032;-79
2021/04/03 11:52:35;;;;;;;6.20;2.23;;;;;;;9.06;41.03;96808.66;5078036;28;20477;-79